Time;durP1;ratioP1;P1;durP2;ratioP2;P2;SDS_P1;SDS_P2;PMS_P1;PMS_P2;Temp;Humidity;BMP_temperature;BMP_pressure;BME280_temperature;BME280_humidity;BME280_pressure;Samples;Min_cycle;Max_cycle;Signal;HPM_P1;HPM_P2
2022/03/03 00:00:14;;;;;;;29.27;15.02;;;;;;;3.36;52.95;94807.47;4912833;29;20036;-77
2022/03/03 00:02:40;;;;;;;28.05;14.95;;;;;;;3.33;53.16;94818.13;4912491;29;20156;-77
2022/03/03 00:05:06;;;;;;;28.23;15.25;;;;;;;3.34;53.41;94802.53;4896825;29;20036;-77
2022/03/03 00:07:31;;;;;;;26.55;16.15;;;;;;;3.29;53.91;94815.16;4913040;29;20031;-77
2022/03/03 00:09:57;;;;;;;26.85;14.23;;;;;;;3.37;53.18;94816.75;4914272;29;20056;-77
2022/03/03 00:12:22;;;;;;;31.88;16.08;;;;;;;3.38;53.10;94801.16;4936385;23;20059;-77
2022/03/03 00:14:48;;;;;;;23.95;15.05;;;;;;;3.30;53.64;94791.03;4921927;29;20036;-77
2022/03/03 00:17:13;;;;;;;19.95;13.00;;;;;;;3.29;53.44;94802.28;4914091;29;20040;-78
2022/03/03 00:19:39;;;;;;;24.23;13.68;;;;;;;3.30;52.98;94799.53;4897970;29;20055;-78
2022/03/03 00:22:04;;;;;;;29.27;14.77;;;;;;;3.32;53.13;94794.22;4913918;29;20044;-78
2022/03/03 00:24:29;;;;;;;26.75;15.70;;;;;;;3.35;53.51;94796.41;4925925;29;20048;-78
2022/03/03 00:26:55;;;;;;;23.13;14.25;;;;;;;3.38;53.52;94793.44;4921607;29;20040;-78
2022/03/03 00:29:20;;;;;;;22.10;13.63;;;;;;;3.37;53.44;94801.34;4899591;29;20048;-77
2022/03/03 00:31:46;;;;;;;21.58;14.23;;;;;;;3.41;53.18;94793.06;4899871;29;20749;-78
2022/03/03 00:34:12;;;;;;;35.80;13.63;;;;;;;3.46;52.88;94792.53;4897077;29;20086;-77
2022/03/03 00:36:37;;;;;;;21.63;13.35;;;;;;;3.43;53.04;94791.13;4912910;29;20044;-77
2022/03/03 00:41:56;;;;;;;23.73;13.02;;;;;;;3.41;53.47;94787.94;4930817;23;20052;-77
2022/03/03 00:44:21;;;;;;;20.92;13.60;;;;;;;3.35;53.09;94800.75;4886860;29;20080;-77
2022/03/03 00:46:47;;;;;;;29.70;14.30;;;;;;;3.38;53.34;94798.59;4878363;29;20477;-77
2022/03/03 00:49:12;;;;;;;21.58;13.63;;;;;;;3.37;53.31;94794.44;4877740;29;20041;-77
2022/03/03 00:51:38;;;;;;;21.70;13.68;;;;;;;3.38;53.41;94793.44;4851655;29;20124;-77
2022/03/03 00:54:03;;;;;;;22.70;13.75;;;;;;;3.36;53.54;94795.41;4895351;29;20092;-78
2022/03/03 00:56:29;;;;;;;22.45;13.15;;;;;;;3.36;53.45;94795.41;4874506;29;20041;-77
2022/03/03 00:58:54;;;;;;;19.58;13.13;;;;;;;3.38;53.54;94792.66;4874236;29;20064;-77
2022/03/03 01:01:20;;;;;;;17.23;12.80;;;;;;;3.37;52.89;94791.06;4891543;29;20045;-77
2022/03/03 01:03:45;;;;;;;21.48;14.07;;;;;;;3.42;53.64;94794.69;4889097;29;20021;-77
2022/03/03 01:06:11;;;;;;;25.27;13.15;;;;;;;3.45;53.10;94785.78;4895775;29;20443;-78
2022/03/03 01:08:36;;;;;;;21.95;13.63;;;;;;;3.44;53.45;94781.63;4882168;29;20077;-77
2022/03/03 01:11:03;;;;;;;20.00;13.60;;;;;;;3.43;53.26;94786.00;4882293;29;20045;-78
2022/03/03 01:13:29;;;;;;;23.88;12.98;;;;;;;3.46;53.06;94780.47;4880659;29;20097;-77
2022/03/03 01:15:55;;;;;;;19.00;14.15;;;;;;;3.44;53.11;94777.28;4894054;29;20033;-78
2022/03/03 01:18:20;;;;;;;21.55;13.95;;;;;;;3.47;53.23;94781.25;4868605;29;20037;-78
2022/03/03 01:20:46;;;;;;;19.23;13.77;;;;;;;3.45;53.09;94784.03;4883097;29;20073;-77
2022/03/03 01:23:11;;;;;;;18.73;13.68;;;;;;;3.34;53.09;94774.25;4880528;29;20048;-77
2022/03/03 01:25:37;;;;;;;20.55;13.70;;;;;;;3.31;53.55;94774.63;4880714;29;20044;-77
2022/03/03 01:28:02;;;;;;;19.92;14.77;;;;;;;3.25;54.04;94777.94;4881910;29;20048;-77
2022/03/03 01:30:28;;;;;;;18.67;13.65;;;;;;;3.23;53.90;94770.41;4878460;29;20045;-77
2022/03/03 01:32:53;;;;;;;20.55;14.13;;;;;;;3.23;53.64;94764.47;4881395;29;20052;-77
2022/03/03 01:35:19;;;;;;;22.70;14.32;;;;;;;3.24;54.25;94771.19;4917527;23;20052;-77
2022/03/03 01:37:44;;;;;;;21.42;13.88;;;;;;;3.25;54.36;94762.50;4928699;29;20055;-77
2022/03/03 01:40:10;;;;;;;26.67;13.95;;;;;;;3.28;53.84;94767.31;4924627;29;20571;-77
2022/03/03 01:42:36;;;;;;;21.98;13.68;;;;;;;3.26;54.09;94761.56;4920276;29;20066;-77
2022/03/03 01:45:01;;;;;;;23.90;14.88;;;;;;;3.27;54.09;94755.44;4918692;29;20048;-77
2022/03/03 01:49:57;;;;;;;34.33;17.50;;;;;;;3.30;54.00;94749.91;4938618;23;20142;-77
2022/03/03 01:52:47;;;;;;;31.27;16.67;;;;;;;3.28;54.08;94751.88;4923635;29;20056;-77
2022/03/03 01:55:12;;;;;;;33.15;16.48;;;;;;;3.24;54.63;94750.66;4886647;29;20088;-77
2022/03/03 01:57:38;;;;;;;25.05;15.65;;;;;;;3.24;54.49;94746.31;4898216;29;20037;-77
2022/03/03 02:00:05;;;;;;;23.02;14.68;;;;;;;3.27;54.36;94740.03;4880463;29;20073;-77
2022/03/03 02:02:31;;;;;;;24.02;15.43;;;;;;;3.24;54.77;94740.38;4891836;29;20557;-77
2022/03/03 02:04:56;;;;;;;21.38;14.90;;;;;;;3.22;54.54;94734.63;4892623;29;20052;-77
2022/03/03 02:07:22;;;;;;;25.55;15.27;;;;;;;3.19;54.70;94737.59;4878349;29;20556;-77
2022/03/03 02:09:47;;;;;;;27.70;14.93;;;;;;;3.16;54.96;94733.63;4876506;29;20492;-77
2022/03/03 02:12:13;;;;;;;29.20;15.27;;;;;;;3.13;54.99;94740.91;4861474;29;20417;-77
2022/03/03 02:14:48;;;;;;;25.23;14.95;;;;;;;3.09;55.30;94739.66;4892294;29;20052;-77
2022/03/03 02:17:14;;;;;;;21.92;15.20;;;;;;;3.09;55.20;94742.25;4876628;29;20078;-77
2022/03/03 02:19:40;;;;;;;22.13;15.20;;;;;;;3.07;55.06;94746.78;4891821;29;20185;-77
2022/03/03 02:22:06;;;;;;;22.52;14.88;;;;;;;3.15;55.14;94749.22;4876242;29;20040;-77
2022/03/03 02:24:31;;;;;;;24.85;16.30;;;;;;;3.18;54.95;94741.13;4861307;29;20120;-77
2022/03/03 02:26:59;;;;;;;24.73;15.77;;;;;;;3.22;54.47;94742.34;4876779;29;20410;-77
2022/03/03 02:29:24;;;;;;;20.77;15.02;;;;;;;3.22;54.65;94742.34;4845051;29;20153;-77
2022/03/03 02:31:50;;;;;;;21.95;15.35;;;;;;;3.23;55.00;94742.16;4859431;29;20025;-77
2022/03/03 02:34:16;;;;;;;24.40;16.00;;;;;;;3.15;54.94;94741.50;4877658;29;20056;-77
2022/03/03 02:36:41;;;;;;;21.88;14.55;;;;;;;3.12;55.35;94729.84;4878150;29;20084;-77
2022/03/03 02:39:07;;;;;;;25.85;15.38;;;;;;;2.96;56.02;94741.19;4860688;29;20053;-77
2022/03/03 02:41:33;;;;;;;24.02;15.80;;;;;;;2.83;56.23;94748.00;4876828;29;20036;-77
2022/03/03 02:43:59;;;;;;;23.25;15.23;;;;;;;2.81;56.57;94748.19;4891988;29;20560;-77
2022/03/03 02:46:24;;;;;;;22.73;15.57;;;;;;;2.78;56.55;94746.00;4892253;29;20048;-78
2022/03/03 02:48:50;;;;;;;21.15;15.40;;;;;;;2.70;56.75;94743.53;4876048;29;20158;-77
2022/03/03 02:51:15;;;;;;;26.00;15.90;;;;;;;2.67;57.37;94749.84;4876161;29;20132;-77
2022/03/03 02:53:41;;;;;;;36.58;15.60;;;;;;;2.63;57.36;94747.81;4876091;29;20037;-77
2022/03/03 02:56:06;;;;;;;25.33;15.43;;;;;;;2.57;57.81;94743.41;4877367;29;20051;-77
2022/03/03 02:58:32;;;;;;;31.05;16.33;;;;;;;2.57;57.76;94740.84;4877324;29;20453;-77
2022/03/03 03:00:57;;;;;;;26.15;15.40;;;;;;;2.54;57.72;94754.06;4860776;29;20073;-77
2022/03/03 03:03:23;;;;;;;25.00;15.93;;;;;;;2.51;57.57;94751.84;4866548;29;20145;-77
2022/03/03 03:05:49;;;;;;;25.77;16.05;;;;;;;2.53;58.08;94753.25;4885808;29;20036;-77
2022/03/03 03:08:14;;;;;;;24.77;15.32;;;;;;;2.54;57.87;94744.56;4881881;29;20588;-77
2022/03/03 03:10:40;;;;;;;24.27;15.65;;;;;;;2.57;57.86;94744.19;4918597;23;20039;-77
2022/03/03 03:13:06;;;;;;;19.73;14.10;;;;;;;2.63;57.68;94738.34;4941326;28;20527;-77
2022/03/03 03:15:31;;;;;;;31.05;15.65;;;;;;;2.57;58.14;94743.41;4933611;29;20044;-77
2022/03/03 03:18:15;;;;;;;25.55;16.58;;;;;;;2.54;58.26;94743.78;4936641;29;20024;-78
2022/03/03 03:20:42;;;;;;;26.10;16.27;;;;;;;2.60;58.31;94743.88;4929024;29;20043;-77
2022/03/03 03:23:08;;;;;;;26.52;17.15;;;;;;;2.66;58.16;94747.44;4935882;29;20048;-77
2022/03/03 03:25:33;;;;;;;32.47;19.15;;;;;;;2.66;57.70;94744.88;4912063;29;20144;-77
2022/03/03 03:27:59;;;;;;;29.85;16.30;;;;;;;2.70;58.06;94741.75;4932940;29;20054;-77
2022/03/03 03:30:24;;;;;;;31.27;17.63;;;;;;;2.72;57.69;94746.72;4933381;29;20040;-77
2022/03/03 03:32:50;;;;;;;29.88;17.80;;;;;;;2.70;58.06;94743.53;4916319;29;20078;-77
2022/03/03 03:35:15;;;;;;;31.42;17.95;;;;;;;2.70;58.25;94748.66;4920118;23;20048;-77
2022/03/03 03:37:40;;;;;;;27.83;18.90;;;;;;;2.75;57.69;94751.47;4914397;29;20047;-77
2022/03/03 03:40:07;;;;;;;31.15;18.20;;;;;;;2.80;57.82;94744.03;4907639;29;20094;-77
2022/03/03 03:42:32;;;;;;;29.60;18.33;;;;;;;2.88;57.91;94741.31;4905846;29;20040;-77
2022/03/03 03:44:58;;;;;;;28.10;16.33;;;;;;;2.94;57.29;94740.59;4926856;29;20416;-77
2022/03/03 03:47:23;;;;;;;28.38;16.65;;;;;;;2.98;57.31;94731.50;4903290;29;20032;-77
2022/03/03 03:49:49;;;;;;;34.30;16.63;;;;;;;2.98;57.21;94726.38;4903261;29;20698;-77
2022/03/03 03:52:14;;;;;;;26.95;16.02;;;;;;;3.03;57.31;94737.88;4887598;29;20517;-77
2022/03/03 03:54:40;;;;;;;24.00;16.80;;;;;;;3.05;56.67;94741.03;4902399;29;20511;-77
2022/03/03 03:57:05;;;;;;;28.50;16.33;;;;;;;3.07;56.68;94739.06;4904804;29;20509;-77
2022/03/03 03:59:31;;;;;;;29.00;16.30;;;;;;;3.12;56.69;94739.31;4918881;29;20041;-77
2022/03/03 04:01:57;;;;;;;29.90;19.17;;;;;;;3.07;57.05;94739.88;4902697;29;20044;-77
2022/03/03 04:04:22;;;;;;;30.75;18.55;;;;;;;3.04;56.72;94737.66;4888233;29;20040;-77
2022/03/03 04:06:47;;;;;;;38.95;21.30;;;;;;;3.01;57.13;94735.47;4903142;29;20028;-77
2022/03/03 04:09:13;;;;;;;41.92;21.10;;;;;;;3.06;56.63;94732.34;4903091;29;20687;-77
2022/03/03 04:11:38;;;;;;;29.80;16.55;;;;;;;2.99;57.22;94725.41;4887127;29;20036;-77
2022/03/03 04:14:04;;;;;;;27.80;17.02;;;;;;;2.93;57.61;94723.59;4918707;29;20075;-77
2022/03/03 04:16:29;;;;;;;31.67;18.67;;;;;;;2.99;57.55;94722.03;4903665;29;20040;-78
2022/03/03 04:18:55;;;;;;;31.83;19.23;;;;;;;3.03;57.47;94733.50;4904440;29;20378;-77
2022/03/03 04:21:20;;;;;;;34.20;19.50;;;;;;;3.07;57.37;94733.94;4887036;29;20430;-78
2022/03/03 04:23:46;;;;;;;28.45;17.75;;;;;;;3.10;56.71;94731.00;4942404;29;20040;-78
2022/03/03 04:26:11;;;;;;;25.40;15.85;;;;;;;3.12;56.77;94726.47;4946402;29;20033;-78
2022/03/03 04:28:37;;;;;;;27.02;16.73;;;;;;;3.15;56.09;94728.66;4918371;29;20091;-78
2022/03/03 04:31:03;;;;;;;32.22;18.75;;;;;;;3.20;55.88;94728.88;4933196;29;20080;-77
2022/03/03 04:33:28;;;;;;;27.05;17.50;;;;;;;3.23;55.99;94718.22;4895165;29;20056;-77
2022/03/03 04:35:54;;;;;;;24.58;16.50;;;;;;;3.19;56.40;94717.03;4922702;29;20064;-77
2022/03/03 04:38:19;;;;;;;23.35;15.85;;;;;;;3.20;56.10;94721.19;4904538;29;20032;-77
2022/03/03 04:40:45;;;;;;;32.97;18.20;;;;;;;3.25;56.09;94711.13;4889308;29;20481;-77
2022/03/03 04:43:10;;;;;;;31.40;19.83;;;;;;;3.24;55.70;94714.69;4930591;29;20040;-77
2022/03/03 04:45:36;;;;;;;33.65;18.55;;;;;;;3.18;56.02;94713.66;4914739;29;20032;-78
2022/03/03 04:48:01;;;;;;;24.83;16.85;;;;;;;3.13;56.73;94718.56;4929769;29;20045;-77
2022/03/03 04:50:27;;;;;;;30.42;17.30;;;;;;;3.16;55.80;94718.19;4931185;23;20420;-77
2022/03/03 04:52:52;;;;;;;29.67;18.65;;;;;;;3.14;56.04;94712.47;4919984;29;20075;-77
2022/03/03 04:55:18;;;;;;;31.98;17.88;;;;;;;3.13;56.19;94716.00;4913620;29;20028;-77
2022/03/03 04:57:43;;;;;;;30.15;18.58;;;;;;;3.13;56.24;94717.78;4881169;29;20033;-77
2022/03/03 05:00:09;;;;;;;28.42;17.52;;;;;;;3.10;56.29;94718.97;4896726;29;20119;-77
2022/03/03 05:02:35;;;;;;;30.50;19.02;;;;;;;3.13;56.65;94720.34;4912894;29;20044;-77
2022/03/03 05:05:05;;;;;;;32.35;18.10;;;;;;;3.19;56.53;94711.88;4913272;29;20086;-78
2022/03/03 05:07:30;;;;;;;37.53;21.20;;;;;;;3.20;56.52;94723.75;4914875;29;20024;-78
2022/03/03 05:09:56;;;;;;;35.22;18.13;;;;;;;3.24;56.84;94720.59;4917165;29;20559;-78
2022/03/03 05:12:21;;;;;;;30.58;19.85;;;;;;;3.15;56.17;94719.19;4914656;29;20047;-78
2022/03/03 05:14:47;;;;;;;32.42;19.00;;;;;;;3.15;56.13;94716.63;4914499;29;20050;-78
2022/03/03 05:17:13;;;;;;;25.08;17.63;;;;;;;3.15;56.08;94726.09;4914848;29;20068;-78
2022/03/03 05:19:38;;;;;;;25.00;17.38;;;;;;;3.12;55.64;94716.19;4913932;29;20056;-78
2022/03/03 05:22:04;;;;;;;28.45;17.50;;;;;;;3.12;56.46;94716.19;4897556;29;20044;-78
2022/03/03 05:24:29;;;;;;;30.92;18.33;;;;;;;3.05;55.79;94716.13;4882470;29;20075;-77
2022/03/03 05:26:55;;;;;;;31.98;18.20;;;;;;;3.12;55.95;94724.69;4897316;29;20041;-78
2022/03/03 05:29:20;;;;;;;25.60;17.20;;;;;;;3.19;55.88;94717.03;4926084;23;20045;-78
2022/03/03 05:31:45;;;;;;;31.13;17.60;;;;;;;3.22;55.88;94721.78;4914086;29;20194;-78
2022/03/03 05:34:11;;;;;;;28.00;17.15;;;;;;;3.31;55.15;94723.22;4915992;29;20456;-78
2022/03/03 05:36:39;;;;;;;29.55;18.35;;;;;;;3.29;55.07;94728.56;4916769;29;20063;-78
2022/03/03 05:39:04;;;;;;;25.67;17.00;;;;;;;3.29;55.14;94725.19;4917899;29;20032;-78
2022/03/03 05:41:30;;;;;;;30.80;18.98;;;;;;;3.32;54.74;94727.38;4916248;29;20416;-78
2022/03/03 05:43:55;;;;;;;32.88;17.08;;;;;;;3.28;55.07;94726.19;4916187;29;20028;-77
2022/03/03 05:46:21;;;;;;;24.73;16.20;;;;;;;3.19;55.14;94729.88;4898939;29;20117;-77
2022/03/03 05:48:48;;;;;;;27.55;16.92;;;;;;;3.23;54.56;94728.50;4914610;29;20063;-77
2022/03/03 05:51:13;;;;;;;29.73;17.13;;;;;;;3.27;54.66;94730.53;4897919;29;20132;-77
2022/03/03 05:53:38;;;;;;;33.90;18.77;;;;;;;3.34;54.50;94730.56;4917502;29;20044;-77
2022/03/03 05:56:07;;;;;;;33.75;17.25;;;;;;;3.39;54.47;94724.84;4916836;29;20040;-78
2022/03/03 05:58:45;;;;;;;29.05;16.33;;;;;;;3.33;53.78;94728.19;4909902;29;20044;-77
2022/03/03 06:01:11;;;;;;;29.15;18.20;;;;;;;3.40;54.39;94734.94;4920574;29;20547;-77
2022/03/03 06:03:37;;;;;;;32.88;17.85;;;;;;;3.48;53.83;94732.22;4934052;29;20047;-77
2022/03/03 06:06:14;;;;;;;29.17;18.02;;;;;;;3.57;53.37;94741.34;4929998;29;20044;-78
2022/03/03 06:08:41;;;;;;;36.10;18.90;;;;;;;3.61;53.73;94734.06;4976838;23;20048;-78
2022/03/03 06:11:16;;;;;;;31.73;19.23;;;;;;;3.66;53.88;94738.63;4920198;29;20051;-78
2022/03/03 06:13:46;;;;;;;33.10;18.92;;;;;;;3.80;53.14;94733.38;4923480;29;20062;-78
2022/03/03 06:16:11;;;;;;;25.75;15.90;;;;;;;3.94;53.06;94726.50;4915885;29;20542;-78
2022/03/03 06:18:37;;;;;;;29.67;17.98;;;;;;;4.13;52.20;94728.34;4957923;23;20040;-78
2022/03/03 06:21:03;;;;;;;37.00;18.52;;;;;;;4.27;51.35;94736.09;4913873;29;20032;-77
2022/03/03 06:23:30;;;;;;;36.10;17.63;;;;;;;4.34;51.28;94721.44;4915007;29;20067;-77
2022/03/03 06:26:08;;;;;;;27.92;18.63;;;;;;;4.48;50.52;94720.50;4898712;29;20032;-78
2022/03/03 06:28:34;;;;;;;28.38;16.98;;;;;;;4.60;49.83;94720.72;4915229;29;20171;-78
2022/03/03 06:30:59;;;;;;;42.83;19.13;;;;;;;4.67;50.11;94722.28;4913378;29;20571;-78
2022/03/03 06:33:25;;;;;;;39.50;24.00;;;;;;;4.79;49.89;94725.88;4914783;29;20040;-78
2022/03/03 06:35:51;;;;;;;37.38;19.77;;;;;;;4.75;48.75;94724.69;4915854;29;20036;-78
2022/03/03 06:38:16;;;;;;;45.33;23.50;;;;;;;4.82;49.69;94722.91;4915598;29;20500;-78
2022/03/03 06:40:42;;;;;;;38.25;22.48;;;;;;;4.77;49.20;94717.56;4915478;29;20043;-78
2022/03/03 06:43:08;;;;;;;29.20;17.98;;;;;;;4.77;49.08;94714.19;4914850;29;20055;-78
2022/03/03 06:45:33;;;;;;;32.10;18.98;;;;;;;4.68;48.24;94726.44;4914859;29;20024;-78
2022/03/03 06:48:00;;;;;;;32.08;18.52;;;;;;;4.56;49.32;94719.53;4915214;29;20094;-78
2022/03/03 06:50:26;;;;;;;32.75;18.48;;;;;;;4.51;48.75;94732.97;4915306;29;20036;-78
2022/03/03 06:52:51;;;;;;;27.60;17.20;;;;;;;4.55;49.24;94730.78;4884213;29;20047;-78
2022/03/03 06:55:22;;;;;;;31.00;17.02;;;;;;;4.58;49.33;94741.50;4899971;29;20551;-78
2022/03/03 06:57:54;;;;;;;26.65;16.90;;;;;;;4.51;48.54;94732.97;4884095;29;20128;-82
2022/03/03 07:00:20;;;;;;;33.40;20.00;;;;;;;4.51;48.69;94732.97;4915376;29;20068;-77
2022/03/03 07:02:47;;;;;;;36.33;18.60;;;;;;;4.53;48.82;94736.13;4914831;29;20071;-78
2022/03/03 07:05:14;;;;;;;32.97;19.23;;;;;;;4.53;48.74;94742.06;4914511;29;20036;-78
2022/03/03 07:07:41;;;;;;;34.40;19.75;;;;;;;4.61;48.76;94735.16;4882389;29;20100;-78
2022/03/03 07:10:07;;;;;;;29.95;17.42;;;;;;;4.71;47.84;94738.94;4897906;29;20063;-77
2022/03/03 07:12:33;;;;;;;30.95;20.55;;;;;;;4.83;47.48;94739.94;4896646;29;20496;-78
2022/03/03 07:14:59;;;;;;;43.05;23.00;;;;;;;5.10;47.14;94740.72;4881891;29;20028;-77
2022/03/03 07:17:47;;;;;;;45.85;23.20;;;;;;;5.31;46.64;94739.72;4915370;29;20578;-79
2022/03/03 07:20:39;;;;;;;38.22;20.27;;;;;;;5.54;45.67;94738.50;4917348;29;20036;-79
2022/03/03 07:23:07;;;;;;;39.30;19.13;;;;;;;5.60;45.64;94735.88;4914185;29;20082;-78
2022/03/03 07:25:49;;;;;;;34.47;17.55;;;;;;;5.62;45.21;94738.25;4910141;29;20044;-79
2022/03/03 07:28:15;;;;;;;37.08;23.83;;;;;;;5.56;45.96;94741.66;4913512;29;20575;-76
2022/03/03 07:30:42;;;;;;;52.28;29.23;;;;;;;5.81;45.48;94740.00;4898937;29;20048;-77
2022/03/03 07:33:11;;;;;;;45.58;24.13;;;;;;;6.03;45.03;94732.03;4914039;29;20039;-76
2022/03/03 07:35:37;;;;;;;32.95;17.35;;;;;;;6.03;43.95;94737.19;4912921;29;20044;-75
2022/03/03 07:38:12;;;;;;;47.05;21.05;;;;;;;6.29;44.76;94729.28;4899853;29;20084;-78
2022/03/03 07:40:38;;;;;;;31.55;17.00;;;;;;;6.50;43.76;94720.44;4924679;29;20571;-81
2022/03/03 07:43:03;;;;;;;20.52;15.38;;;;;;;6.39;44.91;94723.69;4886805;29;20036;-81
2022/03/03 07:45:29;;;;;;;32.33;18.00;;;;;;;6.27;43.96;94723.56;4902287;29;20040;-81
2022/03/03 07:47:55;;;;;;;25.98;16.90;;;;;;;6.10;45.13;94727.59;4900171;29;20060;-84
2022/03/03 07:50:21;;;;;;;29.77;17.73;;;;;;;5.99;47.73;94736.78;4884618;29;20028;-80
2022/03/03 07:52:48;;;;;;;34.08;20.40;;;;;;;5.97;46.25;94733.63;4901345;29;20123;-80
2022/03/03 07:55:13;;;;;;;38.05;20.58;;;;;;;5.94;46.85;94732.25;4914719;29;20028;-80
2022/03/03 07:57:43;;;;;;;29.95;17.77;;;;;;;5.87;47.06;94744.34;4916443;29;20051;-81
2022/03/03 08:00:10;;;;;;;34.92;21.02;;;;;;;5.94;45.41;94745.13;4883937;29;20532;-81
2022/03/03 08:02:36;;;;;;;40.85;23.58;;;;;;;5.99;46.08;94736.78;4898577;29;20107;-81
2022/03/03 08:05:02;;;;;;;33.40;19.80;;;;;;;5.88;46.45;94740.78;4916137;29;20036;-81
2022/03/03 08:07:28;;;;;;;34.58;18.60;;;;;;;5.76;45.51;94739.03;4877158;29;20063;-81
2022/03/03 08:09:59;;;;;;;41.95;22.65;;;;;;;5.68;46.46;94750.34;4914408;29;20428;-80
2022/03/03 08:12:25;;;;;;;51.85;27.95;;;;;;;5.67;45.75;94744.41;4915153;29;20048;-81
2022/03/03 08:14:51;;;;;;;39.35;22.90;;;;;;;5.76;45.96;94737.25;4916656;29;20051;-80
2022/03/03 08:17:18;;;;;;;34.45;22.00;;;;;;;5.79;46.08;94741.19;4901018;29;20131;-82
2022/03/03 08:19:44;;;;;;;36.35;19.73;;;;;;;5.76;45.87;94744.19;4883851;29;20047;-71
2022/03/03 08:22:11;;;;;;;36.17;21.50;;;;;;;5.73;46.10;94745.38;4912569;29;20096;-73
2022/03/03 08:24:42;;;;;;;39.80;20.02;;;;;;;5.80;45.54;94743.56;4912220;29;20040;-72
2022/03/03 08:27:08;;;;;;;28.10;16.95;;;;;;;5.56;45.97;94731.34;4912074;29;20055;-73
2022/03/03 08:29:33;;;;;;;39.92;20.10;;;;;;;5.52;45.91;94741.25;4896096;29;20051;-72
2022/03/03 08:31:59;;;;;;;54.70;26.10;;;;;;;5.62;47.05;94736.47;4911568;29;20032;-73
2022/03/03 08:34:33;;;;;;;42.88;23.58;;;;;;;5.92;45.61;94733.44;4896213;29;20036;-72
2022/03/03 08:37:00;;;;;;;41.58;22.73;;;;;;;6.00;45.42;94741.72;4912545;29;20040;-72
2022/03/03 08:39:29;;;;;;;40.40;20.42;;;;;;;6.10;45.63;94730.97;4911993;29;20047;-72
2022/03/03 08:42:04;;;;;;;38.28;19.40;;;;;;;6.13;45.95;94737.50;4896487;29;20044;-72
2022/03/03 08:44:32;;;;;;;31.80;15.75;;;;;;;6.12;46.24;94735.94;4871999;29;20072;-73
2022/03/03 08:46:58;;;;;;;29.13;18.55;;;;;;;6.03;45.09;94737.19;4896189;29;20039;-74
2022/03/03 08:49:24;;;;;;;43.22;22.13;;;;;;;5.86;45.32;94749.72;4896042;29;20048;-73
2022/03/03 08:51:50;;;;;;;37.58;20.67;;;;;;;5.92;45.37;94739.41;4910941;29;20103;-73
2022/03/03 08:54:15;;;;;;;46.67;22.25;;;;;;;5.87;45.62;94738.41;4896374;29;20040;-73
2022/03/03 08:56:41;;;;;;;48.80;21.52;;;;;;;5.87;45.53;94731.44;4913190;29;20091;-73
2022/03/03 08:59:07;;;;;;;31.08;17.63;;;;;;;5.91;46.13;94735.22;4911973;29;20036;-73
2022/03/03 09:01:32;;;;;;;32.28;18.13;;;;;;;5.98;45.07;94735.97;4911809;29;20093;-74
2022/03/03 09:03:58;;;;;;;29.95;18.13;;;;;;;6.12;47.00;94726.41;4913535;29;20114;-73
2022/03/03 09:06:24;;;;;;;22.38;14.20;;;;;;;6.16;45.30;94731.94;4896323;29;20048;-74
2022/03/03 09:08:50;;;;;;;47.38;22.98;;;;;;;6.32;45.06;94732.25;4911218;29;20060;-73
2022/03/03 09:11:18;;;;;;;37.50;19.92;;;;;;;6.37;45.62;94726.47;4897195;29;20040;-73
2022/03/03 09:13:43;;;;;;;32.88;19.85;;;;;;;6.35;45.30;94730.28;4915670;29;20123;-73
2022/03/03 09:16:09;;;;;;;35.13;19.33;;;;;;;6.42;44.31;94721.47;4914809;29;20127;-74
2022/03/03 09:18:35;;;;;;;29.23;17.33;;;;;;;6.49;44.77;94742.88;4912132;29;20040;-74
2022/03/03 09:21:00;;;;;;;34.13;19.30;;;;;;;6.45;44.12;94730.59;4914294;29;20036;-74
2022/03/03 09:23:25;;;;;;;30.70;16.30;;;;;;;6.42;45.17;94731.03;4899113;29;20040;-73
2022/03/03 09:25:51;;;;;;;28.00;15.93;;;;;;;6.36;45.63;94721.53;4913339;29;20036;-73
2022/03/03 09:28:16;;;;;;;35.80;18.17;;;;;;;6.45;44.64;94731.38;4898506;29;20048;-74
2022/03/03 09:30:42;;;;;;;49.03;26.48;;;;;;;6.71;44.81;94729.66;4913721;29;20059;-73
2022/03/03 09:33:08;;;;;;;30.60;17.90;;;;;;;6.88;44.04;94725.53;4897386;29;20032;-74
2022/03/03 09:35:34;;;;;;;41.05;23.95;;;;;;;6.92;43.99;94727.50;4912809;29;20032;-73
2022/03/03 09:37:59;;;;;;;46.42;23.50;;;;;;;6.82;43.08;94721.19;4914645;29;20052;-72
2022/03/03 09:40:26;;;;;;;40.65;19.67;;;;;;;6.66;44.00;94727.66;4913612;29;20036;-72
2022/03/03 09:43:09;;;;;;;52.63;25.23;;;;;;;6.50;43.40;94730.75;4913755;29;20559;-72
2022/03/03 09:45:36;;;;;;;56.17;26.27;;;;;;;6.50;45.10;94716.06;4897376;29;20556;-72
2022/03/03 09:48:09;;;;;;;69.18;33.97;;;;;;;6.52;43.49;94716.66;4898278;29;20099;-72
2022/03/03 09:50:38;;;;;;;36.35;18.95;;;;;;;6.56;43.93;94712.66;4911347;29;20046;-72
2022/03/03 09:53:15;;;;;;;29.75;16.60;;;;;;;6.58;43.25;94705.47;4896357;29;20536;-72
2022/03/03 09:55:41;;;;;;;32.03;18.17;;;;;;;6.62;43.01;94716.97;4915263;29;20036;-73
2022/03/03 09:58:06;;;;;;;28.98;17.67;;;;;;;6.73;42.89;94712.13;4913356;29;20070;-74
2022/03/03 10:00:36;;;;;;;26.63;16.88;;;;;;;6.74;42.69;94714.50;4912651;29;20035;-72
2022/03/03 10:03:12;;;;;;;39.00;20.33;;;;;;;6.88;42.27;94722.97;4913652;29;20047;-72
2022/03/03 10:05:49;;;;;;;41.33;21.38;;;;;;;6.96;42.87;94711.56;4913023;29;20032;-72
2022/03/03 10:08:16;;;;;;;35.40;19.00;;;;;;;7.01;42.61;94714.31;4913061;29;20083;-72
2022/03/03 10:10:46;;;;;;;34.95;18.17;;;;;;;7.04;41.80;94712.09;4897890;29;20032;-72
2022/03/03 10:13:16;;;;;;;24.73;16.38;;;;;;;6.99;42.02;94709.34;4897561;29;20028;-72
2022/03/03 10:15:42;;;;;;;24.42;15.77;;;;;;;6.85;41.87;94711.25;4914208;29;20032;-72
2022/03/03 10:18:11;;;;;;;45.55;22.50;;;;;;;6.88;42.08;94710.03;4896455;29;20048;-74
2022/03/03 10:20:46;;;;;;;44.58;25.85;;;;;;;6.94;42.44;94709.19;4910992;29;20086;-73
2022/03/03 10:23:11;;;;;;;28.80;17.73;;;;;;;6.89;42.18;94716.78;4912181;29;20028;-73
2022/03/03 10:25:42;;;;;;;24.42;13.55;;;;;;;6.85;41.75;94718.22;4912176;29;20054;-73
2022/03/03 10:28:11;;;;;;;37.15;17.73;;;;;;;6.77;41.97;94713.28;4911471;29;20908;-73
2022/03/03 10:31:07;;;;;;;32.90;16.52;;;;;;;6.71;41.58;94711.56;4913058;29;20046;-73
2022/03/03 10:33:34;;;;;;;28.05;15.93;;;;;;;6.60;41.96;94700.88;4894335;29;20056;-73
2022/03/03 10:36:22;;;;;;;34.40;19.42;;;;;;;6.58;42.08;94708.06;4915763;29;20044;-73
2022/03/03 10:38:58;;;;;;;38.90;18.92;;;;;;;6.58;42.63;94700.31;4915462;29;20159;-74
2022/03/03 10:41:30;;;;;;;33.80;19.95;;;;;;;6.70;42.68;94699.66;4896999;29;20040;-74
2022/03/03 10:43:56;;;;;;;25.17;16.52;;;;;;;6.69;42.88;94696.28;4897175;29;20076;-73
2022/03/03 10:46:22;;;;;;;41.15;19.10;;;;;;;6.67;43.59;94687.94;4911861;29;20039;-73
2022/03/03 10:48:47;;;;;;;32.33;17.20;;;;;;;6.66;42.04;94694.09;4910579;29;20044;-73
2022/03/03 10:51:14;;;;;;;26.25;16.42;;;;;;;6.75;42.57;94687.66;4911693;29;20493;-72
2022/03/03 10:53:39;;;;;;;22.60;15.32;;;;;;;6.81;42.11;94688.59;4914663;29;20035;-72
2022/03/03 10:56:05;;;;;;;35.75;20.08;;;;;;;6.87;42.21;94682.63;4909235;29;20036;-72
2022/03/03 10:58:46;;;;;;;48.53;22.92;;;;;;;6.88;42.23;94691.94;4910408;29;20452;-72
2022/03/03 11:01:12;;;;;;;31.58;17.52;;;;;;;6.86;42.46;94678.44;4913155;29;20173;-72
2022/03/03 11:03:39;;;;;;;40.38;20.40;;;;;;;6.87;42.82;94682.63;4908782;29;20059;-72
2022/03/03 11:06:04;;;;;;;40.80;21.88;;;;;;;6.93;42.49;94679.16;4911891;29;20036;-72
2022/03/03 11:08:29;;;;;;;31.92;18.90;;;;;;;6.93;42.49;94686.94;4912650;29;20503;-72
2022/03/03 11:10:55;;;;;;;40.88;22.67;;;;;;;6.99;42.25;94680.91;4896991;29;20420;-72
2022/03/03 11:13:21;;;;;;;44.75;22.02;;;;;;;7.10;41.57;94677.63;4912624;29;20040;-72
2022/03/03 11:15:46;;;;;;;39.90;19.52;;;;;;;7.13;41.35;94679.00;4897269;29;20028;-72
2022/03/03 11:18:18;;;;;;;34.03;20.13;;;;;;;7.11;42.44;94676.63;4914004;29;20048;-73
2022/03/03 11:20:44;;;;;;;37.20;18.23;;;;;;;7.03;41.97;94681.28;4897557;29;20044;-73
2022/03/03 11:23:10;;;;;;;27.42;17.45;;;;;;;6.98;42.33;94687.06;4913259;29;20047;-72
2022/03/03 11:25:36;;;;;;;27.23;15.25;;;;;;;6.81;41.91;94688.59;4914026;29;20444;-72
2022/03/03 11:28:08;;;;;;;45.55;20.65;;;;;;;6.68;42.73;94679.19;4913686;29;20043;-72
2022/03/03 11:30:34;;;;;;;;;;;;;;;6.65;42.51;94683.97;4911406;29;20040;-72